Time;durP1;ratioP1;P1;durP2;ratioP2;P2;SDS_P1;SDS_P2;PMS_P1;PMS_P2;Temp;Humidity;BMP_temperature;BMP_pressure;BME280_temperature;BME280_humidity;BME280_pressure;Samples;Min_cycle;Max_cycle;Signal;HPM_P1;HPM_P2
2022/03/18 00:02:22;;;;;;;3.90;2.20;;;17.20;38.50;;;;;;5072590;28;20186;-72
2022/03/18 00:04:49;;;;;;;2.67;2.20;;;17.20;38.50;;;;;;5073643;28;20037;-76
2022/03/18 00:07:15;;;;;;;2.78;2.00;;;17.20;38.50;;;;;;5072280;28;20044;-74
2022/03/18 00:09:41;;;;;;;4.40;3.00;;;17.20;38.50;;;;;;5088974;28;20089;-72
2022/03/18 00:12:08;;;;;;;4.55;2.53;;;17.10;38.50;;;;;;5072062;28;20442;-76
2022/03/18 00:14:34;;;;;;;2.53;1.95;;;17.10;38.50;;;;;;5071246;28;20397;-74
2022/03/18 00:17:00;;;;;;;3.10;2.25;;;17.10;38.50;;;;;;5071169;28;20400;-74
2022/03/18 00:19:27;;;;;;;3.15;2.25;;;17.10;38.50;;;;;;5070738;28;20045;-71
2022/03/18 00:22:00;;;;;;;4.97;2.65;;;17.10;38.50;;;;;;5071715;28;20582;-75
2022/03/18 00:24:26;;;;;;;6.28;2.38;;;17.10;38.50;;;;;;5073619;28;20040;-72
2022/03/18 00:26:52;;;;;;;4.10;2.55;;;17.10;38.50;;;;;;5089191;28;20123;-72
2022/03/18 00:29:17;;;;;;;2.75;2.15;;;17.00;38.40;;;;;;5072740;28;20518;-76
2022/03/18 00:31:44;;;;;;;3.28;1.85;;;17.00;38.50;;;;;;5071651;28;20040;-72
2022/03/18 00:34:10;;;;;;;4.80;2.40;;;17.10;38.60;;;;;;5071495;28;20127;-76
2022/03/18 00:36:39;;;;;;;3.00;1.95;;;17.00;38.50;;;;;;5070707;28;20140;-72
2022/03/18 00:39:06;;;;;;;4.55;2.10;;;17.00;38.60;;;;;;5070410;28;20037;-72
2022/03/18 00:41:31;;;;;;;3.08;2.17;;;17.00;38.60;;;;;;5070905;28;20127;-75
2022/03/18 00:43:57;;;;;;;3.75;2.17;;;17.00;38.60;;;;;;5072484;28;20082;-75
2022/03/18 00:46:24;;;;;;;3.55;1.65;;;17.00;38.60;;;;;;5071667;28;20044;-72
2022/03/18 00:52:08;;;;;;;4.78;2.05;;;16.90;38.50;;;;;;5070506;28;20048;-73
2022/03/18 00:54:22;;;;;;;3.53;2.08;;;17.00;38.50;;;;;;5070800;28;20442;-74
2022/03/18 00:56:48;;;;;;;2.72;1.88;;;16.90;38.50;;;;;;5070032;28;20040;-72
2022/03/18 00:59:14;;;;;;;3.22;1.98;;;16.90;38.60;;;;;;5070126;28;20075;-72
2022/03/18 01:01:39;;;;;;;2.85;1.58;;;16.90;38.60;;;;;;5070491;28;20049;-73
2022/03/18 01:04:05;;;;;;;2.22;1.52;;;16.80;38.50;;;;;;5070961;28;20067;-72
2022/03/18 01:06:32;;;;;;;2.95;2.13;;;16.80;38.50;;;;;;5071239;28;20381;-74
2022/03/18 01:08:58;;;;;;;3.15;2.30;;;16.80;38.50;;;;;;5059738;28;20045;-74
2022/03/18 01:11:23;;;;;;;3.35;1.95;;;16.80;38.50;;;;;;5072273;28;20073;-76
2022/03/18 01:13:49;;;;;;;2.15;1.10;;;16.80;38.70;;;;;;5071516;28;20499;-75
2022/03/18 01:16:18;;;;;;;2.63;1.30;;;16.80;38.50;;;;;;5053145;28;20036;-72
2022/03/18 01:18:44;;;;;;;2.33;1.60;;;16.90;38.60;;;;;;5070976;28;20036;-72
2022/03/18 01:21:10;;;;;;;4.28;1.90;;;16.70;38.50;;;;;;5053381;28;20521;-71
2022/03/18 01:23:35;;;;;;;2.75;1.50;;;16.70;38.50;;;;;;5071480;28;20044;-72
2022/03/18 01:26:01;;;;;;;2.97;1.70;;;16.70;38.60;;;;;;5070723;28;20037;-74
2022/03/18 01:28:27;;;;;;;3.13;1.95;;;16.70;38.60;;;;;;5071777;28;20044;-72
2022/03/18 01:30:54;;;;;;;3.38;1.73;;;16.70;38.50;;;;;;5053771;28;20044;-72
2022/03/18 01:33:19;;;;;;;2.67;1.50;;;16.70;38.60;;;;;;5053664;28;20048;-71
2022/03/18 01:35:45;;;;;;;4.57;1.95;;;16.70;38.60;;;;;;5053178;28;20062;-72
2022/03/18 01:38:10;;;;;;;2.50;1.65;;;16.70;38.60;;;;;;5052924;28;20044;-75
2022/03/18 01:40:36;;;;;;;4.82;1.92;;;16.60;38.50;;;;;;5052971;28;20097;-73
2022/03/18 01:43:02;;;;;;;3.28;1.40;;;16.60;38.60;;;;;;5053396;28;20531;-76
2022/03/18 01:45:27;;;;;;;2.97;1.48;;;16.60;38.60;;;;;;5071508;28;20055;-71
2022/03/18 01:47:59;;;;;;;3.38;1.40;;;16.60;38.50;;;;;;5070803;28;20369;-75
2022/03/18 01:50:27;;;;;;;2.85;1.60;;;16.60;38.60;;;;;;5070216;28;20044;-75
2022/03/18 01:52:54;;;;;;;3.38;1.52;;;16.60;38.60;;;;;;5071526;28;20555;-72
2022/03/18 01:55:20;;;;;;;3.00;1.48;;;16.60;38.50;;;;;;5053143;28;20503;-74
2022/03/18 01:57:46;;;;;;;3.17;1.67;;;16.50;38.50;;;;;;5052336;28;20235;-72
2022/03/18 02:00:13;;;;;;;2.97;1.58;;;16.50;38.60;;;;;;5052480;28;20544;-74
2022/03/18 02:02:42;;;;;;;3.03;1.52;;;16.50;38.60;;;;;;5071103;28;20435;-73
2022/03/18 02:05:09;;;;;;;3.30;1.70;;;16.50;38.60;;;;;;5053347;28;20040;-74
2022/03/18 02:07:36;;;;;;;3.72;1.58;;;16.50;38.60;;;;;;5058977;28;20047;-76
2022/03/18 02:10:02;;;;;;;2.72;1.45;;;16.50;38.60;;;;;;5110729;28;20047;-76
2022/03/18 02:12:28;;;;;;;2.33;1.33;;;16.50;38.60;;;;;;5093674;28;20040;-72
2022/03/18 02:14:54;;;;;;;3.08;1.40;;;16.50;38.60;;;;;;5111508;28;20032;-75
2022/03/18 02:17:19;;;;;;;2.75;1.65;;;16.40;38.70;;;;;;5092762;28;20084;-74
2022/03/18 02:19:47;;;;;;;2.78;1.52;;;16.30;38.80;;;;;;5110849;28;20471;-72
2022/03/18 02:22:18;;;;;;;3.15;1.77;;;16.40;39.00;;;;;;5093243;28;20047;-75
2022/03/18 02:24:46;;;;;;;2.22;1.67;;;16.50;38.80;;;;;;5093107;28;20046;-72
2022/03/18 02:27:12;;;;;;;2.50;1.23;;;16.70;38.60;;;;;;5111964;28;20044;-72
2022/03/18 02:29:39;;;;;;;2.83;1.30;;;17.30;37.80;;;;;;5093611;28;20605;-72
2022/03/18 02:32:06;;;;;;;3.15;1.10;;;18.10;36.20;;;;;;5111964;28;20042;-74
2022/03/18 02:34:33;;;;;;;2.97;1.20;;;19.00;34.70;;;;;;5111014;28;20040;-72
2022/03/18 02:36:59;;;;;;;3.20;1.30;;;19.70;33.50;;;;;;5092647;28;20039;-72
2022/03/18 02:39:24;;;;;;;2.75;1.30;;;20.40;32.60;;;;;;5092401;28;20500;-72
2022/03/18 02:41:53;;;;;;;2.63;1.10;;;20.90;31.70;;;;;;5092624;28;20399;-72
2022/03/18 02:44:25;;;;;;;2.63;1.17;;;21.30;31.00;;;;;;5092768;28;20495;-72
2022/03/18 02:46:51;;;;;;;2.38;1.15;;;21.70;30.40;;;;;;5093564;28;20043;-73
2022/03/18 02:49:17;;;;;;;2.58;1.48;;;22.10;30.00;;;;;;5093306;28;20052;-73
2022/03/18 02:51:43;;;;;;;2.67;1.17;;;22.40;29.60;;;;;;5092586;28;20040;-72
2022/03/18 02:54:09;;;;;;;1.98;0.98;;;22.70;29.30;;;;;;5092244;28;20039;-72
2022/03/18 02:56:36;;;;;;;2.28;1.02;;;22.90;29.10;;;;;;5092261;28;20077;-72
2022/03/18 02:59:02;;;;;;;1.85;1.25;;;23.10;28.80;;;;;;5109200;28;20047;-72
2022/03/18 03:01:30;;;;;;;2.78;1.00;;;23.30;28.60;;;;;;5110771;28;20100;-73
2022/03/18 03:03:56;;;;;;;2.67;1.25;;;23.40;28.40;;;;;;5111291;28;20051;-74
2022/03/18 03:09:10;;;;;;;2.45;1.23;;;23.80;28.20;;;;;;5092625;28;20052;-73
2022/03/18 03:11:36;;;;;;;1.67;0.90;;;23.90;28.00;;;;;;5110159;28;20051;-73
2022/03/18 03:14:02;;;;;;;2.88;0.90;;;24.00;27.90;;;;;;5092374;28;20039;-72
2022/03/18 03:16:28;;;;;;;1.98;0.88;;;24.10;27.80;;;;;;5113437;28;20074;-73
2022/03/18 03:18:54;;;;;;;1.45;1.02;;;24.10;27.60;;;;;;5095467;28;20039;-72
2022/03/18 03:21:20;;;;;;;1.92;1.00;;;24.20;27.60;;;;;;5095585;28;20040;-72
2022/03/18 03:23:47;;;;;;;1.77;0.82;;;24.30;27.50;;;;;;5096304;28;20047;-72
2022/03/18 03:26:14;;;;;;;2.58;1.00;;;24.30;27.40;;;;;;5115192;28;20051;-73
2022/03/18 03:28:41;;;;;;;3.33;1.20;;;24.30;27.40;;;;;;5115203;28;20122;-72
2022/03/18 03:31:13;;;;;;;2.05;1.17;;;24.40;27.40;;;;;;5114451;28;20071;-72
2022/03/18 03:33:38;;;;;;;2.55;0.85;;;24.40;27.40;;;;;;5096319;28;20031;-73
2022/03/18 03:36:07;;;;;;;2.65;0.93;;;24.40;27.30;;;;;;5113786;28;20122;-72
2022/03/18 03:38:36;;;;;;;1.77;0.80;;;24.40;27.30;;;;;;5113481;28;20447;-72
2022/03/18 03:41:02;;;;;;;1.50;0.85;;;24.30;27.20;;;;;;5111917;28;20123;-74
2022/03/18 03:43:28;;;;;;;1.80;1.02;;;24.30;27.20;;;;;;5096328;28;20114;-72
2022/03/18 03:45:53;;;;;;;2.03;0.80;;;24.30;27.30;;;;;;5114555;28;20047;-72
2022/03/18 03:48:19;;;;;;;1.33;0.60;;;24.20;27.30;;;;;;5113319;28;20067;-73
2022/03/18 03:50:45;;;;;;;1.88;0.80;;;24.10;27.40;;;;;;5096057;28;20658;-73
2022/03/18 03:53:10;;;;;;;2.38;0.82;;;24.00;27.50;;;;;;5112829;28;20046;-74
2022/03/18 03:55:39;;;;;;;1.98;0.80;;;24.00;27.60;;;;;;5094914;28;20027;-72
2022/03/18 03:58:07;;;;;;;1.50;0.60;;;23.80;27.60;;;;;;5113713;28;20085;-72
2022/03/18 04:00:36;;;;;;;2.08;0.88;;;23.80;27.70;;;;;;5094732;28;20100;-73
2022/03/18 04:03:03;;;;;;;2.50;1.10;;;23.80;27.70;;;;;;5095912;28;20395;-73
2022/03/18 04:05:30;;;;;;;1.20;0.55;;;23.80;27.60;;;;;;5079071;28;20044;-73
2022/03/18 04:07:56;;;;;;;2.03;1.00;;;23.90;27.50;;;;;;5095549;28;20100;-73
2022/03/18 04:10:22;;;;;;;2.30;0.98;;;24.00;27.40;;;;;;5095771;28;20035;-73
2022/03/18 04:12:48;;;;;;;1.20;0.52;;;24.10;27.30;;;;;;5095309;28;20040;-73
2022/03/18 04:15:13;;;;;;;1.92;0.80;;;24.20;27.20;;;;;;5095023;28;20122;-73
2022/03/18 04:20:21;;;;;;;1.88;0.90;;;24.20;27.20;;;;;;5128092;27;20445;-72
2022/03/18 04:22:48;;;;;;;1.70;0.60;;;24.30;27.00;;;;;;5127979;28;20643;-73
2022/03/18 04:25:14;;;;;;;2.47;0.93;;;24.40;27.00;;;;;;5128542;28;20047;-73
2022/03/18 04:27:40;;;;;;;1.30;0.68;;;24.50;27.00;;;;;;5128950;28;20043;-73
2022/03/18 04:30:09;;;;;;;2.90;0.70;;;24.50;26.90;;;;;;5128087;28;20119;-74
2022/03/18 04:32:35;;;;;;;2.63;0.40;;;24.50;26.90;;;;;;5128438;28;20057;-74
2022/03/18 04:35:00;;;;;;;1.95;0.85;;;24.50;26.80;;;;;;5127698;28;20118;-74
2022/03/18 04:37:26;;;;;;;2.10;0.50;;;24.50;26.80;;;;;;5127227;28;20035;-73
2022/03/18 04:39:56;;;;;;;1.65;1.00;;;24.50;26.90;;;;;;5128512;27;20035;-74
2022/03/18 04:42:22;;;;;;;3.53;0.90;;;24.40;26.80;;;;;;5127348;28;20044;-74
2022/03/18 04:44:47;;;;;;;2.20;0.90;;;24.40;26.80;;;;;;5128295;28;20048;-74
2022/03/18 04:47:13;;;;;;;2.30;0.90;;;24.40;26.80;;;;;;5128988;28;20036;-75
2022/03/18 04:49:39;;;;;;;3.05;1.00;;;24.40;26.90;;;;;;5127868;27;20043;-73
2022/03/18 04:52:05;;;;;;;2.17;0.80;;;24.30;26.90;;;;;;5127632;28;20050;-73
2022/03/18 04:54:31;;;;;;;2.55;0.90;;;24.30;27.00;;;;;;5128949;28;20100;-76
2022/03/18 04:57:28;;;;;;;2.30;1.10;;;24.20;27.00;;;;;;5127717;28;20479;-75
2022/03/18 04:59:43;;;;;;;2.38;0.80;;;24.20;27.00;;;;;;5126602;28;20055;-74
2022/03/18 05:02:10;;;;;;;1.88;0.93;;;24.20;27.00;;;;;;5127086;28;20039;-75
2022/03/18 05:04:37;;;;;;;2.42;0.98;;;24.10;27.00;;;;;;5129397;28;20032;-76
2022/03/18 05:07:05;;;;;;;1.98;1.17;;;24.10;26.90;;;;;;5127904;28;20509;-75
2022/03/18 05:09:31;;;;;;;2.05;0.82;;;24.10;26.90;;;;;;5127773;28;20050;-76
2022/03/18 05:11:57;;;;;;;2.17;0.90;;;24.20;26.90;;;;;;5128531;28;20028;-76
2022/03/18 05:14:23;;;;;;;1.80;0.80;;;24.20;26.80;;;;;;5128872;28;20031;-75
2022/03/18 05:16:49;;;;;;;2.13;1.05;;;24.30;26.80;;;;;;5126711;28;20047;-75
2022/03/18 05:19:15;;;;;;;2.33;0.90;;;24.30;26.70;;;;;;5125834;28;20052;-74
2022/03/18 05:21:50;;;;;;;2.22;1.13;;;24.40;26.70;;;;;;5126354;28;20043;-76
2022/03/18 05:24:16;;;;;;;3.42;1.13;;;24.50;26.60;;;;;;5127470;28;20494;-74
2022/03/18 05:26:42;;;;;;;2.90;0.98;;;24.50;26.40;;;;;;5127823;28;20390;-74
2022/03/18 05:29:07;;;;;;;2.78;1.23;;;24.60;26.40;;;;;;5127290;28;20126;-76
2022/03/18 05:31:36;;;;;;;2.28;0.90;;;24.70;26.30;;;;;;5113745;28;20071;-74
2022/03/18 05:34:02;;;;;;;2.42;0.85;;;24.70;26.20;;;;;;5113492;28;20053;-76
2022/03/18 05:36:28;;;;;;;3.13;0.90;;;24.80;26.20;;;;;;5114299;28;20036;-73
2022/03/18 05:38:53;;;;;;;2.40;1.30;;;24.80;26.10;;;;;;5113302;28;20071;-76
2022/03/18 05:41:19;;;;;;;2.45;1.00;;;24.80;26.10;;;;;;5112294;28;20459;-76
2022/03/18 05:43:44;;;;;;;1.63;0.85;;;24.80;26.20;;;;;;5112970;28;20035;-73
2022/03/18 05:46:11;;;;;;;2.78;1.10;;;24.70;26.30;;;;;;5113818;28;20035;-73
2022/03/18 05:48:37;;;;;;;2.60;1.13;;;24.60;26.40;;;;;;5113192;28;20047;-75
2022/03/18 05:51:03;;;;;;;1.80;0.60;;;24.50;26.40;;;;;;5113164;28;20051;-74
2022/03/18 05:53:52;;;;;;;2.03;1.02;;;24.40;26.50;;;;;;5114411;28;20035;-73
2022/03/18 05:59:06;;;;;;;1.95;0.93;;;24.20;26.70;;;;;;5111620;28;20286;-75
2022/03/18 06:01:32;;;;;;;2.20;1.02;;;24.10;26.80;;;;;;5112155;28;20040;-73
2022/03/18 06:03:58;;;;;;;2.20;0.90;;;24.00;26.90;;;;;;5113083;28;20047;-76
2022/03/18 06:06:24;;;;;;;1.55;0.77;;;23.90;26.90;;;;;;5114413;28;20398;-75
2022/03/18 06:11:51;;;;;;;3.60;1.23;;;23.90;26.90;;;;;;5112320;28;20399;-73
2022/03/18 06:14:18;;;;;;;1.98;0.90;;;23.90;26.90;;;;;;5112528;28;20395;-75
2022/03/18 06:16:45;;;;;;;2.50;0.80;;;23.90;26.90;;;;;;5112203;28;20036;-72
2022/03/18 06:19:11;;;;;;;3.20;1.52;;;23.80;27.20;;;;;;5110489;28;20047;-75
2022/03/18 06:21:37;;;;;;;4.88;1.02;;;23.70;27.80;;;;;;5110621;28;20467;-79
2022/03/18 06:24:03;;;;;;;4.57;1.05;;;23.50;28.20;;;;;;5111368;28;20039;-73
2022/03/18 06:26:30;;;;;;;2.50;0.90;;;23.40;28.60;;;;;;5111652;28;20035;-74
2022/03/18 06:28:56;;;;;;;2.95;0.95;;;23.30;28.80;;;;;;5111079;28;20514;-75
2022/03/18 06:31:25;;;;;;;1.27;0.82;;;23.20;29.00;;;;;;5111216;28;20130;-78
2022/03/18 06:33:50;;;;;;;2.00;0.75;;;23.20;29.20;;;;;;5112175;28;20035;-75
2022/03/18 06:36:16;;;;;;;2.10;1.08;;;23.20;29.20;;;;;;5111557;28;20119;-75
2022/03/18 06:38:42;;;;;;;2.40;0.90;;;23.30;29.20;;;;;;5109027;28;20518;-72
2022/03/18 06:41:08;;;;;;;2.25;0.98;;;23.30;29.10;;;;;;5107342;28;20032;-71
2022/03/18 06:43:33;;;;;;;3.95;0.98;;;23.40;29.10;;;;;;5108255;28;20032;-75
2022/03/18 06:46:08;;;;;;;1.63;1.17;;;23.40;29.00;;;;;;5107900;28;20031;-74
2022/03/18 06:48:34;;;;;;;2.25;0.88;;;23.50;28.90;;;;;;5104348;28;20046;-71
2022/03/18 06:51:00;;;;;;;3.70;1.08;;;23.50;28.80;;;;;;5109808;28;20122;-76
2022/03/18 06:53:26;;;;;;;3.22;1.52;;;23.60;28.80;;;;;;5109629;28;20035;-75
2022/03/18 06:55:52;;;;;;;3.53;0.98;;;23.60;28.70;;;;;;5104681;28;20054;-75
2022/03/18 06:58:18;;;;;;;4.50;1.50;;;23.50;28.70;;;;;;5108652;28;20040;-74
2022/03/18 07:00:43;;;;;;;4.22;1.92;;;23.50;28.80;;;;;;5104354;28;20063;-74
2022/03/18 07:03:09;;;;;;;5.00;2.15;;;23.50;28.60;;;;;;5106306;28;20046;-74
2022/03/18 07:05:35;;;;;;;3.58;1.85;;;23.30;28.30;;;;;;5108285;28;20047;-71
2022/03/18 07:08:01;;;;;;;3.90;1.98;;;23.10;28.40;;;;;;5096078;28;20744;-76
2022/03/18 07:10:26;;;;;;;8.43;2.00;;;23.00;28.50;;;;;;5086768;28;20126;-68
2022/03/18 07:12:55;;;;;;;4.25;2.30;;;22.80;28.60;;;;;;5101918;28;20043;-70
2022/03/18 07:15:23;;;;;;;3.95;2.00;;;22.70;28.60;;;;;;5101788;28;20433;-70
2022/03/18 07:17:59;;;;;;;4.03;2.08;;;22.50;28.60;;;;;;5096586;28;20059;-73
2022/03/18 07:20:26;;;;;;;6.43;1.95;;;22.50;28.70;;;;;;5095959;28;20044;-73
2022/03/18 07:25:45;;;;;;;3.58;1.90;;;22.40;28.70;;;;;;5137844;27;1160948;-69
2022/03/18 07:28:12;;;;;;;3.38;2.15;;;22.50;28.70;;;;;;5147304;27;20073;-71
2022/03/18 07:30:39;;;;;;;5.47;2.30;;;22.40;28.60;;;;;;5128651;27;20115;-73
2022/03/18 07:33:05;;;;;;;3.80;1.85;;;22.40;28.70;;;;;;5135560;27;20533;-73
2022/03/18 07:35:33;;;;;;;4.32;1.77;;;22.50;28.70;;;;;;5140682;27;20076;-74
2022/03/18 07:38:03;;;;;;;3.88;1.60;;;22.50;28.80;;;;;;5144673;27;20043;-76
2022/03/18 07:40:29;;;;;;;4.10;1.13;;;22.60;28.80;;;;;;5151210;27;20035;-71
2022/03/18 07:42:57;;;;;;;10.30;2.35;;;22.70;28.80;;;;;;5128420;27;20039;-66
2022/03/18 07:45:29;;;;;;;7.80;1.95;;;22.70;29.30;;;;;;5138357;27;20710;-68
2022/03/18 07:47:58;;;;;;;5.72;2.25;;;22.70;29.60;;;;;;5143671;27;20431;-78
2022/03/18 07:50:29;;;;;;;7.97;2.00;;;22.70;29.80;;;;;;5128482;27;20672;-76
2022/03/18 07:52:58;;;;;;;4.38;1.35;;;22.50;29.90;;;;;;5135265;27;20063;-81
2022/03/18 07:55:25;;;;;;;3.15;1.10;;;22.60;30.10;;;;;;5141579;27;20478;-75
2022/03/18 07:57:51;;;;;;;4.63;1.55;;;22.50;30.30;;;;;;5149465;27;20031;-74
2022/03/18 08:00:18;;;;;;;6.97;1.00;;;22.50;31.40;;;;;;5139291;27;20064;-77
2022/03/18 08:02:47;;;;;;;4.22;1.42;;;22.40;30.80;;;;;;5129353;27;20046;-74
2022/03/18 08:05:13;;;;;;;5.32;1.38;;;22.40;31.10;;;;;;5138824;27;20038;-73
2022/03/18 08:07:39;;;;;;;3.22;0.82;;;22.40;31.30;;;;;;5132650;27;20796;-76
2022/03/18 08:10:07;;;;;;;1.73;0.68;;;22.40;31.50;;;;;;5143718;27;20030;-76
2022/03/18 08:12:33;;;;;;;2.45;0.77;;;22.30;31.70;;;;;;5133229;27;20035;-75
2022/03/18 08:15:02;;;;;;;3.28;0.80;;;22.20;32.00;;;;;;5139027;27;20054;-74
2022/03/18 08:17:28;;;;;;;2.03;0.75;;;22.20;32.30;;;;;;5135715;27;20070;-73
2022/03/18 08:19:54;;;;;;;5.05;0.82;;;22.10;32.40;;;;;;5146345;27;20066;-72
2022/03/18 08:22:25;;;;;;;2.53;0.80;;;22.10;32.70;;;;;;5145294;27;20489;-77
2022/03/18 08:24:52;;;;;;;1.48;0.55;;;22.00;33.80;;;;;;5147292;27;20139;-76
2022/03/18 08:27:18;;;;;;;2.85;1.00;;;21.90;33.20;;;;;;5125464;27;20071;-79
2022/03/18 08:29:45;;;;;;;3.42;1.02;;;21.90;33.60;;;;;;5127702;27;20042;-78
2022/03/18 08:32:14;;;;;;;4.60;0.88;;;21.80;33.60;;;;;;5151466;27;20057;-80
2022/03/18 08:34:40;;;;;;;3.40;1.00;;;21.70;33.50;;;;;;5149536;27;20053;-81
2022/03/18 08:37:06;;;;;;;4.55;0.98;;;21.70;33.50;;;;;;5124737;27;20049;-76
2022/03/18 08:39:33;;;;;;;2.47;0.80;;;21.70;33.60;;;;;;5135823;27;20084;-76
2022/03/18 08:41:59;;;;;;;6.03;1.13;;;21.60;33.80;;;;;;5114733;27;20038;-73
2022/03/18 08:44:24;;;;;;;4.75;0.93;;;21.50;34.20;;;;;;5137457;27;20046;-76
2022/03/18 08:46:50;;;;;;;1.88;0.68;;;21.40;34.40;;;;;;5118461;27;20371;-71
2022/03/18 08:49:16;;;;;;;2.08;0.80;;;21.30;34.80;;;;;;5119599;27;20116;-77
2022/03/18 08:51:42;;;;;;;2.63;0.70;;;21.30;35.10;;;;;;5112529;27;20061;-74
2022/03/18 08:54:08;;;;;;;2.38;0.90;;;21.10;35.10;;;;;;5131031;27;20161;-75
2022/03/18 08:56:36;;;;;;;3.05;0.70;;;21.10;35.30;;;;;;5116014;27;20103;-75
2022/03/18 08:59:06;;;;;;;3.78;0.95;;;21.00;35.30;;;;;;5119956;27;20101;-74
2022/03/18 09:01:33;;;;;;;3.05;0.70;;;20.90;35.50;;;;;;5114220;27;20047;-79
2022/03/18 09:03:58;;;;;;;4.05;0.98;;;20.80;35.50;;;;;;5119560;27;20070;-69
2022/03/18 09:06:24;;;;;;;4.22;0.80;;;20.80;35.70;;;;;;5117314;27;20085;-78
2022/03/18 09:08:50;;;;;;;5.00;1.00;;;20.70;35.80;;;;;;5116857;27;20070;-79
2022/03/18 09:11:15;;;;;;;4.32;0.75;;;20.70;36.00;;;;;;5123510;27;20043;-77
2022/03/18 09:13:41;;;;;;;7.68;1.35;;;20.60;36.20;;;;;;5124901;27;20556;-72
2022/03/18 09:16:07;;;;;;;4.28;0.77;;;20.60;36.30;;;;;;5111690;27;20042;-69
2022/03/18 09:18:33;;;;;;;7.72;0.85;;;20.60;36.50;;;;;;5114677;27;20061;-77
2022/03/18 09:20:59;;;;;;;2.90;0.75;;;20.50;36.60;;;;;;5110452;27;20041;-74
2022/03/18 09:23:25;;;;;;;4.38;0.75;;;20.40;36.70;;;;;;5121399;27;20154;-81
2022/03/18 09:25:51;;;;;;;5.43;0.82;;;20.40;37.10;;;;;;5114314;27;20073;-79
2022/03/18 09:28:17;;;;;;;8.52;1.30;;;20.40;37.40;;;;;;5120876;27;20402;-82
2022/03/18 09:30:43;;;;;;;3.47;0.75;;;20.30;37.70;;;;;;5120786;27;20088;-78
2022/03/18 09:33:09;;;;;;;2.35;0.52;;;20.20;37.80;;;;;;5128655;27;20467;-73
2022/03/18 09:35:36;;;;;;;7.38;0.65;;;20.20;38.00;;;;;;5116265;27;20050;-74
2022/03/18 09:38:02;;;;;;;7.03;1.10;;;20.20;38.30;;;;;;5133571;27;20475;-77
2022/03/18 09:40:28;;;;;;;3.30;1.10;;;20.20;38.40;;;;;;5120105;27;20078;-74
2022/03/18 09:45:36;;;;;;;4.35;1.40;;;20.20;38.40;;;;;;5070719;27;20417;-72
2022/03/18 09:48:09;;;;;;;9.55;0.73;;;20.10;38.60;;;;;;5084842;28;20440;-81
2022/03/18 09:50:36;;;;;;;3.65;0.73;;;20.10;38.90;;;;;;5062363;28;20044;-77
2022/03/18 09:53:02;;;;;;;4.93;0.90;;;20.10;39.00;;;;;;5081410;28;20044;-79
2022/03/18 09:55:30;;;;;;;7.13;1.00;;;20.10;39.20;;;;;;5079489;28;20048;-75
2022/03/18 09:57:56;;;;;;;4.75;1.27;;;20.10;39.20;;;;;;5067179;28;20620;-78
2022/03/18 10:00:22;;;;;;;4.13;0.65;;;20.10;39.10;;;;;;5067841;28;20093;-74
2022/03/18 10:03:16;;;;;;;2.30;0.60;;;20.20;39.00;;;;;;5065056;28;20044;-76
2022/03/18 10:05:54;;;;;;;5.30;0.73;;;20.20;39.20;;;;;;5064388;28;20093;-78
2022/03/18 10:08:21;;;;;;;4.88;0.68;;;20.20;39.30;;;;;;5082609;28;20086;-81
2022/03/18 10:10:48;;;;;;;4.15;1.33;;;20.20;39.30;;;;;;5067466;28;20105;-79
2022/03/18 10:13:15;;;;;;;5.05;0.60;;;20.20;39.10;;;;;;5064432;28;20132;-78
2022/03/18 10:15:42;;;;;;;3.95;0.63;;;20.20;39.20;;;;;;5078866;28;20142;-80
2022/03/18 10:18:16;;;;;;;3.58;0.43;;;20.30;39.20;;;;;;5070818;28;20040;-78
2022/03/18 10:20:45;;;;;;;4.18;1.00;;;20.30;39.30;;;;;;5065976;28;20076;-69
2022/03/18 10:23:29;;;;;;;1.77;0.60;;;20.30;39.10;;;;;;5064517;28;20113;-75
2022/03/18 10:25:56;;;;;;;3.85;0.70;;;20.40;39.30;;;;;;5066581;28;20040;-78
2022/03/18 10:28:41;;;;;;;4.45;1.23;;;20.40;39.40;;;;;;5067220;28;20049;-73
2022/03/18 10:31:18;;;;;;;2.55;0.98;;;20.40;39.40;;;;;;5064949;28;20076;-74
2022/03/18 10:37:11;;;;;;;4.53;1.13;;;20.50;39.30;;;;;;5079880;27;20408;-77
2022/03/18 10:39:28;;;;;;;2.70;0.60;;;20.50;39.10;;;;;;5071755;28;20048;-74
2022/03/18 10:41:55;;;;;;;6.13;1.38;;;20.50;39.00;;;;;;5078754;28;20700;-77
2022/03/18 10:44:21;;;;;;;5.10;0.77;;;20.60;39.00;;;;;;5112103;27;20521;-78
2022/03/18 10:46:49;;;;;;;4.40;1.15;;;20.60;39.00;;;;;;5109676;27;20055;-72
2022/03/18 10:49:15;;;;;;;3.80;0.65;;;20.60;38.90;;;;;;5081111;28;20395;-72
2022/03/18 10:51:41;;;;;;;6.75;0.60;;;20.60;38.90;;;;;;5111856;27;21067;-77
2022/03/18 10:54:07;;;;;;;2.38;1.15;;;20.70;38.90;;;;;;5094730;28;20033;-74
2022/03/18 10:59:32;;;;;;;4.13;1.23;;;20.60;39.00;;;;;;5112738;27;1211774;-77
2022/03/18 11:02:04;;;;;;;4.00;0.98;;;20.70;39.00;;;;;;5107210;27;20639;-76
2022/03/18 11:04:31;;;;;;;5.00;1.17;;;20.70;39.00;;;;;;5106492;27;20043;-71
2022/03/18 11:12:35;;;;;;;6.75;1.10;;;20.70;39.30;;;;;;5105643;27;20047;-71
2022/03/18 11:15:04;;;;;;;7.85;1.38;;;20.70;39.50;;;;;;5107606;27;20041;-70
2022/03/18 11:17:30;;;;;;;6.55;1.10;;;20.60;39.70;;;;;;5098886;27;20043;-68
2022/03/18 11:20:01;;;;;;;3.67;1.20;;;20.60;39.60;;;;;;5115662;27;20446;-73
2022/03/18 11:22:27;;;;;;;3.70;1.00;;;20.60;39.70;;;;;;5101321;28;20627;-73
2022/03/18 11:24:55;;;;;;;3.45;1.08;;;20.60;39.70;;;;;;5127230;27;20035;-71
2022/03/18 11:27:21;;;;;;;2.60;0.75;;;20.50;39.70;;;;;;5107397;27;20036;-71
2022/03/18 11:29:46;;;;;;;2.88;0.82;;;20.50;39.50;;;;;;5097626;27;20091;-74
2022/03/18 11:35:03;;;;;;;2.05;0.60;;;20.50;39.50;;;;;;5066236;28;20388;-72
2022/03/18 11:37:29;;;;;;;2.60;0.55;;;20.40;39.40;;;;;;5060545;28;20128;-69
2022/03/18 11:43:18;;;;;;;2.15;0.57;;;20.30;39.40;;;;;;5121854;27;1169458;-67
2022/03/18 11:45:43;;;;;;;3.63;0.65;;;20.30;39.50;;;;;;5126624;27;20131;-69
2022/03/18 11:48:34;;;;;;;4.05;0.65;;;20.30;39.60;;;;;;5118361;27;20161;-70
2022/03/18 11:51:19;;;;;;;3.80;0.60;;;20.20;39.70;;;;;;5115279;27;20045;-71
2022/03/18 11:53:48;;;;;;;5.95;1.75;;;20.20;39.80;;;;;;5118646;27;20041;-71
2022/03/18 11:56:13;;;;;;;5.57;0.80;;;20.20;40.20;;;;;;5116008;27;20039;-71
2022/03/18 11:58:39;;;;;;;4.07;0.77;;;20.20;40.40;;;;;;5117626;27;20053;-71
2022/03/18 12:01:27;;;;;;;2.83;0.60;;;20.20;40.50;;;;;;5119211;27;20074;-67
2022/03/18 12:03:57;;;;;;;4.80;0.90;;;20.20;40.60;;;;;;5114673;27;20134;-68
2022/03/18 12:06:23;;;;;;;3.17;0.85;;;20.10;40.80;;;;;;5134450;27;20043;-68
2022/03/18 12:11:32;;;;;;;2.83;0.50;;;20.10;41.00;;;;;;5063878;27;20775;-67
2022/03/18 12:13:59;;;;;;;2.15;0.32;;;20.20;41.30;;;;;;5055825;28;20037;-69
2022/03/18 12:16:30;;;;;;;5.28;1.13;;;20.20;41.20;;;;;;5040045;28;20037;-71
2022/03/18 12:18:57;;;;;;;;;;;20.10;41.10;;;;;;5044104;28;20029;-70
2022/03/18 12:21:42;;;;;;;4.70;0.90;;;20.10;40.90;;;;;;5034696;28;19979;-70
2022/03/18 12:24:10;;;;;;;3.08;0.52;;;20.20;41.10;;;;;;5042458;28;20122;-71
2022/03/18 12:26:40;;;;;;;2.38;0.45;;;20.20;41.00;;;;;;5052052;28;20037;-69
2022/03/18 12:29:07;;;;;;;2.33;0.40;;;20.20;40.90;;;;;;5036405;28;20068;-73
2022/03/18 12:31:34;;;;;;;4.97;0.50;;;20.20;40.90;;;;;;5030126;28;20152;-80
2022/03/18 12:34:03;;;;;;;4.70;0.57;;;20.30;40.90;;;;;;5040232;28;20496;-82
2022/03/18 12:36:30;;;;;;;2.55;0.80;;;20.40;40.70;;;;;;5039386;28;20044;-79
2022/03/18 12:39:13;;;;;;;4.22;0.40;;;20.50;40.50;;;;;;5041890;28;20496;-76
2022/03/18 12:41:40;;;;;;;3.97;0.57;;;20.60;40.50;;;;;;5043295;28;20127;-77
2022/03/18 12:44:05;;;;;;;4.10;0.45;;;20.70;40.20;;;;;;5045022;28;20048;-78
2022/03/18 12:46:33;;;;;;;2.30;0.40;;;20.80;40.00;;;;;;5040293;28;20044;-79
2022/03/18 12:48:59;;;;;;;1.35;0.32;;;20.90;39.80;;;;;;5043215;28;20396;-77
2022/03/18 12:51:25;;;;;;;3.85;0.40;;;21.00;39.60;;;;;;5059244;28;20046;-73
2022/03/18 12:53:51;;;;;;;2.58;0.52;;;21.00;39.20;;;;;;5061231;28;20048;-74
2022/03/18 12:56:18;;;;;;;3.35;0.30;;;21.10;39.20;;;;;;5062539;28;20041;-75
2022/03/18 12:58:45;;;;;;;3.75;0.40;;;21.10;39.20;;;;;;5040930;28;20124;-82
2022/03/18 13:01:12;;;;;;;2.75;0.43;;;21.20;39.30;;;;;;5042216;28;20041;-80
2022/03/18 13:03:47;;;;;;;3.85;0.40;;;21.20;39.30;;;;;;5046696;28;20030;-77
2022/03/18 13:06:20;;;;;;;2.20;0.30;;;21.20;39.40;;;;;;5058012;28;20534;-78
2022/03/18 13:08:53;;;;;;;3.47;0.38;;;21.20;39.50;;;;;;5041708;28;20037;-76
2022/03/18 13:11:20;;;;;;;4.25;0.40;;;21.20;39.60;;;;;;5045427;28;20088;-79
2022/03/18 13:13:48;;;;;;;4.18;0.40;;;21.20;39.70;;;;;;5035513;28;20041;-79
2022/03/18 13:16:15;;;;;;;19.92;2.70;;;21.20;39.80;;;;;;5052871;28;20397;-84
2022/03/18 13:18:50;;;;;;;4.53;0.32;;;21.20;39.90;;;;;;5059685;28;20043;-79
2022/03/18 13:21:16;;;;;;;2.90;0.40;;;21.20;40.00;;;;;;5036008;28;20061;-76
2022/03/18 13:23:42;;;;;;;3.67;0.30;;;21.20;40.00;;;;;;5028279;28;20049;-78
2022/03/18 13:26:13;;;;;;;5.95;0.40;;;21.10;40.00;;;;;;5035715;28;20049;-77
2022/03/18 13:28:40;;;;;;;4.82;0.57;;;21.10;40.00;;;;;;5034554;28;20029;-79
2022/03/18 13:33:58;;;;;;;1.58;0.38;;;21.20;40.10;;;;;;5046452;28;20476;-78